Time;durP1;ratioP1;P1;durP2;ratioP2;P2;SDS_P1;SDS_P2;PMS_P1;PMS_P2;Temp;Humidity;BMP_temperature;BMP_pressure;BME280_temperature;BME280_humidity;BME280_pressure;Samples;Min_cycle;Max_cycle;Signal;HPM_P1;HPM_P2
2024/01/12 00:01:37;;;;;;;78.20;31.45;;;;;;;;;;5001016;28;20048;-61
2024/01/12 00:04:03;;;;;;;79.50;31.88;;;;;;;;;;5000914;28;20433;-60
2024/01/12 00:06:29;;;;;;;76.55;31.02;;;;;;;;;;4999275;28;20049;-60
2024/01/12 00:08:55;;;;;;;69.13;28.20;;;;;;;;;;4995315;28;20038;-57
2024/01/12 00:11:22;;;;;;;70.28;27.60;;;;;;;;;;5003732;28;20034;-58
2024/01/12 00:13:49;;;;;;;71.25;28.23;;;;;;;;;;4999163;28;20040;-58
2024/01/12 00:16:19;;;;;;;77.30;27.45;;;;;;;;;;5002007;28;20053;-60
2024/01/12 00:18:45;;;;;;;68.40;26.38;;;;;;;;;;4998716;28;20049;-59
2024/01/12 00:21:11;;;;;;;70.43;25.85;;;;;;;;;;5002342;28;20034;-59
2024/01/12 00:23:37;;;;;;;65.22;25.15;;;;;;;;;;4996996;28;20497;-60
2024/01/12 00:26:04;;;;;;;65.90;25.25;;;;;;;;;;4999762;28;20061;-59
2024/01/12 00:28:32;;;;;;;70.57;25.27;;;;;;;;;;5004561;28;20537;-60
2024/01/12 00:30:59;;;;;;;68.17;25.17;;;;;;;;;;4996153;28;20046;-59
2024/01/12 00:33:25;;;;;;;67.13;25.92;;;;;;;;;;5000892;28;20042;-59
2024/01/12 00:35:51;;;;;;;65.18;25.45;;;;;;;;;;5003555;28;20050;-60
2024/01/12 00:38:17;;;;;;;66.38;25.48;;;;;;;;;;4997981;28;20045;-58
2024/01/12 00:40:44;;;;;;;70.57;26.77;;;;;;;;;;4989069;28;20041;-59
2024/01/12 00:43:10;;;;;;;60.53;23.58;;;;;;;;;;4999875;28;20057;-58
2024/01/12 00:45:37;;;;;;;59.85;25.58;;;;;;;;;;4986795;28;20547;-60
2024/01/12 00:48:05;;;;;;;61.13;25.05;;;;;;;;;;4995350;28;20194;-59
2024/01/12 00:50:31;;;;;;;73.00;26.20;;;;;;;;;;4986388;28;20050;-58
2024/01/12 00:52:57;;;;;;;60.35;23.90;;;;;;;;;;5001843;28;20056;-59
2024/01/12 00:55:23;;;;;;;71.85;26.63;;;;;;;;;;5001746;28;20030;-60
2024/01/12 00:57:49;;;;;;;63.50;25.05;;;;;;;;;;5004058;28;20056;-59
2024/01/12 01:00:16;;;;;;;66.35;24.55;;;;;;;;;;4998062;28;20045;-60
2024/01/12 01:02:45;;;;;;;65.20;25.88;;;;;;;;;;5003722;28;20042;-59
2024/01/12 01:05:11;;;;;;;67.85;26.08;;;;;;;;;;5000687;28;20042;-57
2024/01/12 01:07:37;;;;;;;77.40;27.25;;;;;;;;;;4991814;28;20058;-53
2024/01/12 01:10:04;;;;;;;71.80;27.60;;;;;;;;;;5000697;28;20085;-55
2024/01/12 01:12:30;;;;;;;66.45;27.48;;;;;;;;;;5003022;28;20063;-56
2024/01/12 01:14:56;;;;;;;70.55;26.10;;;;;;;;;;5000334;28;20056;-55
2024/01/12 01:17:24;;;;;;;71.07;26.88;;;;;;;;;;5000117;28;20034;-54
2024/01/12 01:19:50;;;;;;;72.57;26.70;;;;;;;;;;5001103;28;20505;-57
2024/01/12 01:22:16;;;;;;;65.40;25.50;;;;;;;;;;5001854;28;20107;-56
2024/01/12 01:32:56;;;;;;;61.00;23.40;;;;;;;;;;4997051;28;20045;-53
2024/01/12 01:35:22;;;;;;;73.78;25.90;;;;;;;;;;5005630;28;20054;-51
2024/01/12 01:37:50;;;;;;;67.43;24.13;;;;;;;;;;5001716;28;20490;-52
2024/01/12 01:40:16;;;;;;;69.97;26.70;;;;;;;;;;4999724;28;20458;-52
2024/01/12 01:42:46;;;;;;;69.82;25.15;;;;;;;;;;5003053;28;20042;-53
2024/01/12 01:45:13;;;;;;;63.17;25.38;;;;;;;;;;5019466;28;20052;-52
2024/01/12 01:47:40;;;;;;;66.57;25.63;;;;;;;;;;4990053;28;20045;-51
2024/01/12 01:50:08;;;;;;;65.80;26.50;;;;;;;;;;4997875;28;20418;-51
2024/01/12 01:52:34;;;;;;;67.95;25.58;;;;;;;;;;4986252;28;20494;-54
2024/01/12 01:55:00;;;;;;;73.70;26.42;;;;;;;;;;5001265;28;20137;-52
2024/01/12 01:57:27;;;;;;;71.60;26.38;;;;;;;;;;5002290;28;20057;-52
2024/01/12 01:59:55;;;;;;;73.07;26.02;;;;;;;;;;4968824;28;20041;-50
2024/01/12 02:02:22;;;;;;;68.28;24.95;;;;;;;;;;5003161;28;20134;-54
2024/01/12 02:04:50;;;;;;;66.35;24.85;;;;;;;;;;5003713;28;20038;-58
2024/01/12 02:07:17;;;;;;;73.33;26.97;;;;;;;;;;5004101;28;20531;-59
2024/01/12 02:09:44;;;;;;;66.95;26.05;;;;;;;;;;5002225;28;20280;-58
2024/01/12 02:12:10;;;;;;;64.13;25.25;;;;;;;;;;5004738;28;20057;-59
2024/01/12 02:14:37;;;;;;;66.47;25.55;;;;;;;;;;4995424;28;20489;-59
2024/01/12 02:17:03;;;;;;;61.13;23.38;;;;;;;;;;5004222;28;20388;-59
2024/01/12 02:19:29;;;;;;;63.88;23.90;;;;;;;;;;5000378;28;20042;-59
2024/01/12 02:21:55;;;;;;;67.07;24.45;;;;;;;;;;4982813;28;20030;-59
2024/01/12 02:24:21;;;;;;;76.57;27.50;;;;;;;;;;5004346;28;20047;-58
2024/01/12 02:26:48;;;;;;;70.75;27.40;;;;;;;;;;5003720;28;20026;-57
2024/01/12 02:29:14;;;;;;;68.10;26.92;;;;;;;;;;5007145;28;20109;-59
2024/01/12 02:31:40;;;;;;;65.28;24.20;;;;;;;;;;4993115;28;20044;-58
2024/01/12 02:34:07;;;;;;;68.38;25.88;;;;;;;;;;5000251;28;20053;-59
2024/01/12 02:36:33;;;;;;;73.22;25.88;;;;;;;;;;5003144;28;20038;-59
2024/01/12 02:38:59;;;;;;;68.35;24.27;;;;;;;;;;5005896;28;20054;-59
2024/01/12 02:41:25;;;;;;;71.85;25.42;;;;;;;;;;5021894;28;20034;-58
2024/01/12 02:43:52;;;;;;;69.10;25.70;;;;;;;;;;4990722;28;20497;-59
2024/01/12 02:46:18;;;;;;;67.88;24.80;;;;;;;;;;4998390;28;20047;-58
2024/01/12 02:48:44;;;;;;;76.20;26.73;;;;;;;;;;5005390;28;20036;-55
2024/01/12 02:51:10;;;;;;;63.70;25.67;;;;;;;;;;5025027;28;20041;-59
2024/01/12 02:53:36;;;;;;;68.47;26.67;;;;;;;;;;5004430;28;20036;-58
2024/01/12 02:56:03;;;;;;;59.50;25.67;;;;;;;;;;5005604;28;20061;-59
2024/01/12 02:58:29;;;;;;;74.45;26.75;;;;;;;;;;5004473;28;20050;-59
2024/01/12 03:00:55;;;;;;;72.40;25.95;;;;;;;;;;5006048;28;20528;-59
2024/01/12 03:03:21;;;;;;;71.65;27.23;;;;;;;;;;5002751;28;20042;-57
2024/01/12 03:05:48;;;;;;;74.80;27.27;;;;;;;;;;5001516;28;20046;-59
2024/01/12 03:08:15;;;;;;;62.80;24.90;;;;;;;;;;4999383;28;20045;-59
2024/01/12 03:10:41;;;;;;;74.68;28.58;;;;;;;;;;5002961;28;20049;-57
2024/01/12 03:13:07;;;;;;;81.07;28.80;;;;;;;;;;5001602;28;20076;-59
2024/01/12 03:15:33;;;;;;;67.95;26.52;;;;;;;;;;5008797;28;20037;-59
2024/01/12 03:17:59;;;;;;;78.13;28.55;;;;;;;;;;4992597;28;20037;-59
2024/01/12 03:20:25;;;;;;;68.68;26.20;;;;;;;;;;4986395;28;20037;-59
2024/01/12 03:22:52;;;;;;;76.43;26.88;;;;;;;;;;5006796;28;20049;-59
2024/01/12 03:25:18;;;;;;;68.78;26.95;;;;;;;;;;5006076;28;20057;-59
2024/01/12 03:27:44;;;;;;;73.35;27.73;;;;;;;;;;5006989;28;20049;-56
2024/01/12 03:30:11;;;;;;;76.07;27.42;;;;;;;;;;4987156;28;20042;-59
2024/01/12 03:32:37;;;;;;;72.35;26.98;;;;;;;;;;5002387;28;20050;-60
2024/01/12 03:35:03;;;;;;;65.85;25.25;;;;;;;;;;5002607;28;20065;-59
2024/01/12 03:37:29;;;;;;;68.80;25.60;;;;;;;;;;5002675;28;20247;-58
2024/01/12 03:39:56;;;;;;;70.47;26.05;;;;;;;;;;4999137;28;20060;-59
2024/01/12 03:42:22;;;;;;;70.57;26.27;;;;;;;;;;5000600;28;20046;-59
2024/01/12 03:44:48;;;;;;;75.30;27.73;;;;;;;;;;5007793;28;20053;-59
2024/01/12 03:47:14;;;;;;;69.85;26.85;;;;;;;;;;5000813;28;20405;-59
2024/01/12 03:49:40;;;;;;;74.63;26.48;;;;;;;;;;5005788;28;20045;-59
2024/01/12 03:52:07;;;;;;;71.57;26.83;;;;;;;;;;5006346;28;20046;-59
2024/01/12 03:54:33;;;;;;;76.00;29.55;;;;;;;;;;4989293;28;20521;-59
2024/01/12 03:56:59;;;;;;;63.17;26.05;;;;;;;;;;4996939;28;20494;-59
2024/01/12 03:59:25;;;;;;;69.13;27.40;;;;;;;;;;5012149;28;20077;-59
2024/01/12 04:01:51;;;;;;;75.47;26.92;;;;;;;;;;4999477;28;20045;-59
2024/01/12 04:04:17;;;;;;;74.55;27.63;;;;;;;;;;4996314;28;20050;-59
2024/01/12 04:06:44;;;;;;;73.85;27.40;;;;;;;;;;4997612;28;20044;-53
2024/01/12 04:09:10;;;;;;;73.35;27.42;;;;;;;;;;5004948;28;20046;-59
2024/01/12 04:11:37;;;;;;;76.80;27.55;;;;;;;;;;5012025;28;20042;-58
2024/01/12 04:14:03;;;;;;;72.30;27.00;;;;;;;;;;4982625;28;20046;-59
2024/01/12 04:16:29;;;;;;;70.00;27.35;;;;;;;;;;5000646;28;20049;-59
2024/01/12 04:18:56;;;;;;;73.20;27.73;;;;;;;;;;5001301;28;20077;-59
2024/01/12 04:21:22;;;;;;;74.93;26.98;;;;;;;;;;5008462;28;20037;-58
2024/01/12 04:23:48;;;;;;;69.32;25.77;;;;;;;;;;4997805;28;20046;-59
2024/01/12 04:26:14;;;;;;;67.13;25.92;;;;;;;;;;4987613;28;20053;-58
2024/01/12 04:28:40;;;;;;;65.50;26.48;;;;;;;;;;5006189;28;20049;-58
2024/01/12 04:31:07;;;;;;;65.85;25.33;;;;;;;;;;4992941;28;20057;-59
2024/01/12 04:33:34;;;;;;;70.72;26.95;;;;;;;;;;4998709;28;20053;-59
2024/01/12 04:36:06;;;;;;;69.15;25.20;;;;;;;;;;4996548;28;20053;-56
2024/01/12 04:38:32;;;;;;;67.30;26.25;;;;;;;;;;4982214;28;20046;-55
2024/01/12 04:40:58;;;;;;;67.75;26.40;;;;;;;;;;4980467;28;20030;-58
2024/01/12 04:43:25;;;;;;;75.38;28.40;;;;;;;;;;5015077;28;20042;-59
2024/01/12 04:45:51;;;;;;;64.68;25.42;;;;;;;;;;4999759;28;20058;-57
2024/01/12 04:48:17;;;;;;;79.82;26.48;;;;;;;;;;4998870;28;20045;-59
2024/01/12 04:50:43;;;;;;;72.00;26.77;;;;;;;;;;4989011;28;20045;-59
2024/01/12 04:53:09;;;;;;;73.00;26.15;;;;;;;;;;5001956;28;20049;-59
2024/01/12 04:55:36;;;;;;;79.43;26.50;;;;;;;;;;5009664;28;20045;-58
2024/01/12 04:58:03;;;;;;;66.50;25.20;;;;;;;;;;4997353;28;20038;-59
2024/01/12 05:00:30;;;;;;;72.65;26.80;;;;;;;;;;4990845;28;20042;-53
2024/01/12 05:02:58;;;;;;;77.23;26.70;;;;;;;;;;5001639;28;20042;-58
2024/01/12 05:05:24;;;;;;;75.93;28.63;;;;;;;;;;4996530;28;20046;-58
2024/01/12 05:07:50;;;;;;;68.90;26.02;;;;;;;;;;4994431;28;20038;-57
2024/01/12 05:10:16;;;;;;;78.15;27.38;;;;;;;;;;4997150;28;20046;-58
2024/01/12 05:12:43;;;;;;;81.85;28.92;;;;;;;;;;4997192;28;20034;-58
2024/01/12 05:15:09;;;;;;;81.30;29.48;;;;;;;;;;5003529;28;20061;-55
2024/01/12 05:17:35;;;;;;;75.60;25.83;;;;;;;;;;4995026;28;20042;-57
2024/01/12 05:20:06;;;;;;;75.43;28.88;;;;;;;;;;4995819;28;20079;-59
2024/01/12 05:22:35;;;;;;;82.43;28.33;;;;;;;;;;4994486;28;20050;-59
2024/01/12 05:25:03;;;;;;;73.07;26.20;;;;;;;;;;4996161;28;20034;-58
2024/01/12 05:27:29;;;;;;;77.43;27.80;;;;;;;;;;4998342;28;20038;-59
2024/01/12 05:29:55;;;;;;;75.03;28.30;;;;;;;;;;4996741;28;20038;-60
2024/01/12 05:32:21;;;;;;;85.25;29.45;;;;;;;;;;4997720;28;20405;-54
2024/01/12 05:34:47;;;;;;;82.50;30.33;;;;;;;;;;5000018;28;20034;-59
2024/01/12 05:37:13;;;;;;;80.47;28.77;;;;;;;;;;4999258;28;20050;-59
2024/01/12 05:39:40;;;;;;;77.53;28.30;;;;;;;;;;4999253;28;20038;-58
2024/01/12 05:42:06;;;;;;;72.20;26.77;;;;;;;;;;5000839;28;20039;-59
2024/01/12 05:44:32;;;;;;;80.93;28.65;;;;;;;;;;4999423;28;20445;-60
2024/01/12 05:46:58;;;;;;;100.43;31.70;;;;;;;;;;4998036;28;20042;-58
2024/01/12 05:49:24;;;;;;;75.13;28.83;;;;;;;;;;4994203;28;20490;-58
2024/01/12 05:51:51;;;;;;;83.35;31.85;;;;;;;;;;4999332;28;20068;-57
2024/01/12 05:54:17;;;;;;;75.95;28.85;;;;;;;;;;4992074;28;20058;-58
2024/01/12 05:56:43;;;;;;;72.63;27.90;;;;;;;;;;5002598;28;20532;-58
2024/01/12 05:59:09;;;;;;;72.20;27.08;;;;;;;;;;5006452;28;20049;-59
2024/01/12 06:01:35;;;;;;;69.57;28.35;;;;;;;;;;5002334;28;20033;-59
2024/01/12 06:04:01;;;;;;;73.43;27.02;;;;;;;;;;4999997;28;20395;-58
2024/01/12 06:06:28;;;;;;;72.10;28.25;;;;;;;;;;4993159;28;20052;-58
2024/01/12 06:08:54;;;;;;;67.68;27.67;;;;;;;;;;5001707;28;20059;-59
2024/01/12 06:11:20;;;;;;;80.78;29.45;;;;;;;;;;4996468;28;20514;-57
2024/01/12 06:13:46;;;;;;;68.72;26.33;;;;;;;;;;4994448;28;20109;-59
2024/01/12 06:16:12;;;;;;;80.97;27.83;;;;;;;;;;4994422;28;20045;-57
2024/01/12 06:18:39;;;;;;;76.53;28.60;;;;;;;;;;5000854;28;20041;-60
2024/01/12 06:21:05;;;;;;;72.60;27.05;;;;;;;;;;4998156;28;20042;-59
2024/01/12 06:23:31;;;;;;;66.88;25.45;;;;;;;;;;4999852;28;20073;-59
2024/01/12 06:25:57;;;;;;;77.47;28.02;;;;;;;;;;4995566;28;20053;-59
2024/01/12 06:28:23;;;;;;;70.80;27.50;;;;;;;;;;4998723;28;20034;-58
2024/01/12 06:30:53;;;;;;;81.18;28.45;;;;;;;;;;4993286;28;20061;-60
2024/01/12 06:33:19;;;;;;;75.80;30.05;;;;;;;;;;4999351;28;20493;-60
2024/01/12 06:35:46;;;;;;;76.45;30.63;;;;;;;;;;4999243;28;20037;-59
2024/01/12 06:38:12;;;;;;;77.55;30.55;;;;;;;;;;4997802;28;20058;-60
2024/01/12 06:40:38;;;;;;;70.80;27.83;;;;;;;;;;5001398;28;20054;-60
2024/01/12 06:43:05;;;;;;;81.10;28.02;;;;;;;;;;5001399;28;20045;-59
2024/01/12 06:45:31;;;;;;;78.30;27.55;;;;;;;;;;5003887;28;20038;-60
2024/01/12 06:47:57;;;;;;;76.88;28.15;;;;;;;;;;5004816;28;20034;-60
2024/01/12 06:50:23;;;;;;;78.47;27.38;;;;;;;;;;5003579;28;20042;-59
2024/01/12 06:52:50;;;;;;;74.15;27.17;;;;;;;;;;5005932;28;20033;-59
2024/01/12 06:55:16;;;;;;;77.80;26.52;;;;;;;;;;5005261;28;20033;-60
2024/01/12 06:57:46;;;;;;;69.28;25.85;;;;;;;;;;5002959;28;20048;-60
2024/01/12 07:00:15;;;;;;;73.47;25.77;;;;;;;;;;4999862;28;20042;-59
2024/01/12 07:02:41;;;;;;;66.85;24.65;;;;;;;;;;5002561;28;20403;-60
2024/01/12 07:05:07;;;;;;;71.10;26.02;;;;;;;;;;4998188;28;20030;-58
2024/01/12 07:07:34;;;;;;;69.40;25.80;;;;;;;;;;5000407;28;20504;-60
2024/01/12 07:10:00;;;;;;;74.53;27.33;;;;;;;;;;5003987;28;20501;-56
2024/01/12 07:12:26;;;;;;;83.90;29.27;;;;;;;;;;5006170;28;20040;-60
2024/01/12 07:14:52;;;;;;;90.72;29.75;;;;;;;;;;5006408;28;20027;-60
2024/01/12 07:17:20;;;;;;;73.95;27.42;;;;;;;;;;5006260;28;20049;-60
2024/01/12 07:19:46;;;;;;;67.57;25.63;;;;;;;;;;5015162;28;20034;-60
2024/01/12 07:22:12;;;;;;;69.88;27.10;;;;;;;;;;5007253;28;20041;-60
2024/01/12 07:24:38;;;;;;;67.60;26.33;;;;;;;;;;5004067;28;20524;-60
2024/01/12 07:27:06;;;;;;;70.32;27.02;;;;;;;;;;5004333;28;20043;-60
2024/01/12 07:29:33;;;;;;;67.30;28.27;;;;;;;;;;5000269;28;20046;-59
2024/01/12 07:31:59;;;;;;;73.35;28.10;;;;;;;;;;5000763;28;20033;-59
2024/01/12 07:34:25;;;;;;;64.60;25.88;;;;;;;;;;5004140;28;20096;-59
2024/01/12 07:36:51;;;;;;;71.82;27.95;;;;;;;;;;5006576;28;20038;-60
2024/01/12 07:39:18;;;;;;;95.63;38.28;;;;;;;;;;5002105;28;20481;-60
2024/01/12 07:41:44;;;;;;;101.22;37.53;;;;;;;;;;5017001;28;20114;-56
2024/01/12 07:44:13;;;;;;;76.97;27.42;;;;;;;;;;5006563;28;20830;-60
2024/01/12 07:46:39;;;;;;;73.93;27.38;;;;;;;;;;5004688;28;20041;-55
2024/01/12 07:49:05;;;;;;;72.57;25.48;;;;;;;;;;5001158;28;20513;-57
2024/01/12 07:51:31;;;;;;;69.97;28.63;;;;;;;;;;4998986;28;20073;-60
2024/01/12 07:53:57;;;;;;;71.55;26.05;;;;;;;;;;5001039;28;20034;-58
2024/01/12 07:56:24;;;;;;;72.53;26.58;;;;;;;;;;5000403;28;20034;-57
2024/01/12 07:58:50;;;;;;;70.25;26.73;;;;;;;;;;5000723;28;20042;-59
2024/01/12 08:01:17;;;;;;;73.57;26.63;;;;;;;;;;4996049;28;20503;-59
2024/01/12 08:03:44;;;;;;;70.57;27.00;;;;;;;;;;4998791;28;20048;-58
2024/01/12 08:06:11;;;;;;;69.90;26.45;;;;;;;;;;5003943;28;20050;-59
2024/01/12 08:08:37;;;;;;;68.35;25.98;;;;;;;;;;4999419;28;20517;-59
2024/01/12 08:11:04;;;;;;;101.45;33.13;;;;;;;;;;4999716;28;21600;-59
2024/01/12 08:13:30;;;;;;;92.47;32.40;;;;;;;;;;4995910;28;20050;-59
2024/01/12 08:15:57;;;;;;;85.78;32.05;;;;;;;;;;4995040;28;20050;-59
2024/01/12 08:18:24;;;;;;;102.90;34.03;;;;;;;;;;4998164;28;20055;-56
2024/01/12 08:20:50;;;;;;;135.45;42.55;;;;;;;;;;4998111;28;20049;-59
2024/01/12 08:23:16;;;;;;;103.00;36.10;;;;;;;;;;4996278;28;20038;-59
2024/01/12 08:25:43;;;;;;;86.50;32.65;;;;;;;;;;4999249;28;20041;-59
2024/01/12 08:28:09;;;;;;;83.88;31.40;;;;;;;;;;4995942;28;20106;-60
2024/01/12 08:30:35;;;;;;;79.28;32.30;;;;;;;;;;4999066;28;20058;-60
2024/01/12 08:33:02;;;;;;;98.72;33.90;;;;;;;;;;5005146;28;20050;-60
2024/01/12 08:35:28;;;;;;;82.40;32.90;;;;;;;;;;4995934;28;20046;-59
2024/01/12 08:37:54;;;;;;;89.80;34.95;;;;;;;;;;5016009;28;20038;-60
2024/01/12 08:40:21;;;;;;;99.25;36.17;;;;;;;;;;5001396;28;20045;-58
2024/01/12 08:42:48;;;;;;;96.63;35.85;;;;;;;;;;5002037;28;20041;-61
2024/01/12 08:45:14;;;;;;;97.20;37.95;;;;;;;;;;5005279;28;20042;-60
2024/01/12 08:47:40;;;;;;;108.57;41.13;;;;;;;;;;4969887;28;20049;-60
2024/01/12 08:50:07;;;;;;;102.00;41.95;;;;;;;;;;4966943;28;20038;-56
2024/01/12 08:52:33;;;;;;;99.93;41.38;;;;;;;;;;5000476;28;20038;-59
2024/01/12 08:54:59;;;;;;;123.05;45.13;;;;;;;;;;5002535;28;20037;-60
2024/01/12 08:57:26;;;;;;;112.38;44.17;;;;;;;;;;5019029;28;20038;-58
2024/01/12 08:59:52;;;;;;;101.30;39.90;;;;;;;;;;5002394;28;20045;-59
2024/01/12 09:02:18;;;;;;;104.47;37.38;;;;;;;;;;4999771;28;20037;-59
2024/01/12 09:04:45;;;;;;;94.30;39.15;;;;;;;;;;4996249;28;20034;-56
2024/01/12 09:07:11;;;;;;;95.88;39.20;;;;;;;;;;4976421;28;20049;-59
2024/01/12 09:09:37;;;;;;;99.03;38.80;;;;;;;;;;4995007;28;20044;-60
2024/01/12 09:12:04;;;;;;;97.93;38.88;;;;;;;;;;5003338;28;20054;-59
2024/01/12 09:14:31;;;;;;;109.88;40.00;;;;;;;;;;5002922;28;20050;-60
2024/01/12 09:16:57;;;;;;;105.50;42.50;;;;;;;;;;4999234;28;20049;-59
2024/01/12 09:19:23;;;;;;;113.22;40.88;;;;;;;;;;5002143;28;20065;-59
2024/01/12 09:21:49;;;;;;;95.30;37.63;;;;;;;;;;4987759;28;20061;-60
2024/01/12 09:24:16;;;;;;;111.63;40.30;;;;;;;;;;4997853;28;20042;-60
2024/01/12 09:26:42;;;;;;;106.82;37.90;;;;;;;;;;4984992;28;20307;-60
2024/01/12 09:29:08;;;;;;;106.13;39.08;;;;;;;;;;5003174;28;20045;-60
2024/01/12 09:31:34;;;;;;;110.25;39.40;;;;;;;;;;4988646;28;20040;-60
2024/01/12 09:34:01;;;;;;;109.70;40.95;;;;;;;;;;4986875;28;20042;-60
2024/01/12 09:36:27;;;;;;;106.07;40.83;;;;;;;;;;4997316;28;20053;-60
2024/01/12 09:38:54;;;;;;;106.25;39.70;;;;;;;;;;4987125;28;20046;-60
2024/01/12 09:41:31;;;;;;;98.97;39.47;;;;;;;;;;4999810;28;20050;-60
2024/01/12 09:43:59;;;;;;;100.60;39.20;;;;;;;;;;5002274;28;20052;-61
2024/01/12 09:46:30;;;;;;;105.45;40.45;;;;;;;;;;5006688;28;20389;-61
2024/01/12 09:48:56;;;;;;;102.85;40.90;;;;;;;;;;5002643;28;20049;-60
2024/01/12 09:51:26;;;;;;;95.32;40.78;;;;;;;;;;4983965;28;20044;-59
2024/01/12 09:53:52;;;;;;;104.20;41.08;;;;;;;;;;4983172;28;20045;-59
2024/01/12 09:56:19;;;;;;;94.32;38.92;;;;;;;;;;5020656;28;20393;-61
2024/01/12 09:58:46;;;;;;;91.22;38.03;;;;;;;;;;5017674;28;20034;-60
2024/01/12 10:01:13;;;;;;;95.22;38.75;;;;;;;;;;4998379;28;20034;-60
2024/01/12 10:03:41;;;;;;;99.63;40.95;;;;;;;;;;5001903;28;20033;-60
2024/01/12 10:06:07;;;;;;;89.47;37.55;;;;;;;;;;4995161;28;20038;-61
2024/01/12 10:08:37;;;;;;;93.30;39.08;;;;;;;;;;4998085;28;20038;-59
2024/01/12 10:11:03;;;;;;;92.05;38.42;;;;;;;;;;4995687;28;20045;-60
2024/01/12 10:13:29;;;;;;;99.18;40.95;;;;;;;;;;5000070;28;20042;-60
2024/01/12 10:15:56;;;;;;;91.35;38.67;;;;;;;;;;5001012;28;20041;-60
2024/01/12 10:18:23;;;;;;;86.75;37.53;;;;;;;;;;4998008;28;20062;-59
2024/01/12 10:20:50;;;;;;;99.72;41.13;;;;;;;;;;5005118;28;20049;-61
2024/01/12 10:23:20;;;;;;;96.80;39.55;;;;;;;;;;5001659;28;20038;-60
2024/01/12 10:25:56;;;;;;;;;;;;;;;;;;5003773;28;20044;-60
2024/01/12 10:28:22;;;;;;;92.00;38.03;;;;;;;;;;5000873;28;19916;-59
2024/01/12 10:30:48;;;;;;;96.13;38.55;;;;;;;;;;5003886;28;20042;-59
2024/01/12 10:33:16;;;;;;;91.18;39.38;;;;;;;;;;5003887;28;20045;-60
2024/01/12 10:35:47;;;;;;;96.22;40.80;;;;;;;;;;5002813;28;20621;-59
2024/01/12 10:38:14;;;;;;;98.38;40.17;;;;;;;;;;5000217;28;20045;-59
2024/01/12 10:40:41;;;;;;;92.05;39.20;;;;;;;;;;5003416;28;20046;-59
2024/01/12 10:43:09;;;;;;;90.10;39.90;;;;;;;;;;5001920;28;20473;-60
2024/01/12 10:45:38;;;;;;;92.75;39.70;;;;;;;;;;5003633;28;20034;-58
2024/01/12 10:48:08;;;;;;;97.97;41.08;;;;;;;;;;5000317;28;20053;-60
2024/01/12 10:50:42;;;;;;;93.18;41.58;;;;;;;;;;5020160;28;20038;-59
2024/01/12 10:53:14;;;;;;;104.20;42.50;;;;;;;;;;5004576;28;20037;-59
2024/01/12 10:55:49;;;;;;;100.25;42.65;;;;;;;;;;5003164;28;20041;-60
2024/01/12 10:58:16;;;;;;;98.97;40.70;;;;;;;;;;5002743;28;20026;-60
2024/01/12 11:00:43;;;;;;;90.03;40.35;;;;;;;;;;5000600;28;20073;-60
2024/01/12 11:03:10;;;;;;;93.13;41.75;;;;;;;;;;5002091;28;20035;-60
2024/01/12 11:05:37;;;;;;;94.85;42.75;;;;;;;;;;4999436;28;20049;-60
2024/01/12 11:08:09;;;;;;;102.72;45.03;;;;;;;;;;4998549;28;20046;-60
2024/01/12 11:10:38;;;;;;;90.10;43.22;;;;;;;;;;5004054;28;20117;-60
2024/01/12 11:13:05;;;;;;;94.72;41.80;;;;;;;;;;4996832;28;20065;-60
2024/01/12 11:15:31;;;;;;;87.63;40.08;;;;;;;;;;5002113;28;20048;-59
2024/01/12 11:17:58;;;;;;;92.63;41.30;;;;;;;;;;5002433;28;20048;-59
2024/01/12 11:20:24;;;;;;;101.13;45.17;;;;;;;;;;4998313;28;21070;-60
2024/01/12 11:22:50;;;;;;;84.03;39.78;;;;;;;;;;4998733;28;20034;-60
2024/01/12 11:25:19;;;;;;;88.93;40.65;;;;;;;;;;4999585;28;20053;-60
2024/01/12 11:27:50;;;;;;;98.40;42.30;;;;;;;;;;5001073;28;20030;-60
2024/01/12 11:30:21;;;;;;;96.68;41.25;;;;;;;;;;5001539;28;20054;-60
2024/01/12 11:32:48;;;;;;;87.65;40.25;;;;;;;;;;4998361;28;20405;-60
2024/01/12 11:35:16;;;;;;;92.15;41.90;;;;;;;;;;5004932;28;20042;-60
2024/01/12 11:37:58;;;;;;;89.88;42.08;;;;;;;;;;5006316;28;20033;-60
2024/01/12 11:40:25;;;;;;;88.10;39.47;;;;;;;;;;5000674;28;20026;-59
2024/01/12 11:42:52;;;;;;;87.90;38.58;;;;;;;;;;5000292;28;20041;-59
2024/01/12 11:45:18;;;;;;;92.20;42.75;;;;;;;;;;5004086;28;20688;-59
2024/01/12 11:47:45;;;;;;;92.40;41.40;;;;;;;;;;5001668;28;20022;-59
2024/01/12 11:50:14;;;;;;;86.18;42.85;;;;;;;;;;5003505;28;20050;-57
2024/01/12 11:52:40;;;;;;;88.63;40.40;;;;;;;;;;5002138;28;20030;-59
2024/01/12 11:55:09;;;;;;;91.13;40.72;;;;;;;;;;4996770;28;20038;-58
2024/01/12 11:57:36;;;;;;;88.30;40.33;;;;;;;;;;5001408;28;20057;-59
2024/01/12 12:00:03;;;;;;;86.28;39.75;;;;;;;;;;4994762;28;20034;-60
2024/01/12 12:02:35;;;;;;;85.97;40.92;;;;;;;;;;5001181;28;20041;-60
2024/01/12 12:05:11;;;;;;;86.85;41.20;;;;;;;;;;5000765;28;20664;-60
2024/01/12 12:07:39;;;;;;;90.47;42.15;;;;;;;;;;4995385;28;20042;-60
2024/01/12 12:10:12;;;;;;;93.03;42.05;;;;;;;;;;5009561;28;20046;-59
2024/01/12 12:12:39;;;;;;;83.22;39.20;;;;;;;;;;5003768;28;20042;-59
2024/01/12 12:15:12;;;;;;;85.13;40.47;;;;;;;;;;5006806;28;20053;-59
2024/01/12 12:17:44;;;;;;;95.65;41.67;;;;;;;;;;5000712;28;20033;-59
2024/01/12 12:20:11;;;;;;;88.40;41.35;;;;;;;;;;4987979;28;20057;-58
2024/01/12 12:22:42;;;;;;;87.13;40.60;;;;;;;;;;5005380;28;20026;-59
2024/01/12 12:25:10;;;;;;;83.75;40.50;;;;;;;;;;4996360;28;20042;-60
2024/01/12 12:27:43;;;;;;;84.35;40.05;;;;;;;;;;5001117;28;20413;-60
2024/01/12 12:30:10;;;;;;;84.90;40.90;;;;;;;;;;5004167;28;20046;-60
2024/01/12 12:32:41;;;;;;;91.22;41.75;;;;;;;;;;4995565;28;20042;-59
2024/01/12 12:35:17;;;;;;;91.32;41.72;;;;;;;;;;5003356;28;20034;-58
2024/01/12 12:37:47;;;;;;;88.30;41.88;;;;;;;;;;5004710;28;20038;-58
2024/01/12 12:40:14;;;;;;;88.72;40.28;;;;;;;;;;5000778;28;20053;-59
2024/01/12 12:42:41;;;;;;;90.25;42.63;;;;;;;;;;5004366;28;20041;-60
2024/01/12 12:45:09;;;;;;;95.38;43.30;;;;;;;;;;4999390;28;20046;-59
2024/01/12 12:47:37;;;;;;;97.72;45.13;;;;;;;;;;5003015;28;20401;-60
2024/01/12 12:50:05;;;;;;;95.40;42.28;;;;;;;;;;4999455;28;20052;-59
2024/01/12 12:52:32;;;;;;;90.20;43.00;;;;;;;;;;4999743;28;20235;-60
2024/01/12 12:54:59;;;;;;;93.10;44.75;;;;;;;;;;4997188;28;20237;-60
2024/01/12 12:57:26;;;;;;;96.03;44.67;;;;;;;;;;4996741;28;20045;-59
2024/01/12 12:59:52;;;;;;;96.35;44.17;;;;;;;;;;4999767;28;20508;-59
2024/01/12 13:02:19;;;;;;;89.45;43.67;;;;;;;;;;4994673;28;20041;-60
2024/01/12 13:04:45;;;;;;;92.55;41.90;;;;;;;;;;4995092;28;20393;-58
2024/01/12 13:07:11;;;;;;;89.50;42.22;;;;;;;;;;5006238;28;20409;-59
2024/01/12 13:09:38;;;;;;;92.35;44.15;;;;;;;;;;4996181;28;20030;-60
2024/01/12 13:12:04;;;;;;;91.63;43.67;;;;;;;;;;4998044;28;20038;-59
2024/01/12 13:14:30;;;;;;;91.28;43.05;;;;;;;;;;4994737;28;20058;-58
2024/01/12 13:16:57;;;;;;;92.15;45.88;;;;;;;;;;4992632;28;20050;-55
2024/01/12 13:19:23;;;;;;;92.03;43.80;;;;;;;;;;4997809;28;20038;-58
2024/01/12 13:21:50;;;;;;;89.20;43.58;;;;;;;;;;4996458;28;20042;-59
2024/01/12 13:24:16;;;;;;;94.55;45.50;;;;;;;;;;5002029;28;20413;-59
2024/01/12 13:26:43;;;;;;;94.57;46.08;;;;;;;;;;4992773;28;20042;-59
2024/01/12 13:29:09;;;;;;;96.05;47.05;;;;;;;;;;4997707;28;20041;-60
2024/01/12 13:31:41;;;;;;;96.40;43.92;;;;;;;;;;5002754;28;20048;-59
2024/01/12 13:34:13;;;;;;;98.78;47.33;;;;;;;;;;5000873;28;20055;-59
2024/01/12 13:36:44;;;;;;;92.78;45.22;;;;;;;;;;4994593;28;20038;-58
2024/01/12 13:39:11;;;;;;;88.93;44.95;;;;;;;;;;5002084;28;20057;-60
2024/01/12 13:41:41;;;;;;;95.70;46.40;;;;;;;;;;5000956;28;20049;-58
2024/01/12 13:44:07;;;;;;;94.40;46.55;;;;;;;;;;4997642;28;20037;-61
2024/01/12 13:46:34;;;;;;;94.53;45.35;;;;;;;;;;5001910;28;20034;-59
2024/01/12 13:49:00;;;;;;;93.32;45.65;;;;;;;;;;4997641;28;20042;-59
2024/01/12 13:51:27;;;;;;;92.40;45.05;;;;;;;;;;4991634;28;20374;-60
2024/01/12 13:53:54;;;;;;;92.30;44.03;;;;;;;;;;4995753;28;20050;-58
2024/01/12 13:56:21;;;;;;;88.30;42.80;;;;;;;;;;4997643;28;20045;-60
2024/01/12 13:58:47;;;;;;;89.47;43.15;;;;;;;;;;5003838;28;20034;-60
2024/01/12 14:01:14;;;;;;;100.78;46.00;;;;;;;;;;4998318;28;20030;-59
2024/01/12 14:03:45;;;;;;;95.15;46.35;;;;;;;;;;5001433;28;20033;-59
2024/01/12 14:06:11;;;;;;;95.05;46.30;;;;;;;;;;5008366;28;20041;-60
2024/01/12 14:08:38;;;;;;;98.75;46.28;;;;;;;;;;5002515;28;20033;-60
2024/01/12 14:11:05;;;;;;;93.38;44.63;;;;;;;;;;5001157;28;20058;-60
2024/01/12 14:13:32;;;;;;;95.45;46.45;;;;;;;;;;4998215;28;20033;-59
2024/01/12 14:15:59;;;;;;;88.78;43.25;;;;;;;;;;5003878;28;20393;-59
2024/01/12 14:18:25;;;;;;;84.03;42.75;;;;;;;;;;4997245;28;20037;-60
2024/01/12 14:20:54;;;;;;;93.07;44.50;;;;;;;;;;5003013;28;20511;-59
2024/01/12 14:23:21;;;;;;;89.50;43.00;;;;;;;;;;5001879;28;20041;-59